sensor_id;sensor_type;location;lat;lon;timestamp;P1;durP1;ratioP1;P2;durP2;ratioP2
17369;SDS011;8802;52.402;4.920;2022-09-21T10:26:52;1.42;;;0.80;;
17369;SDS011;8802;52.402;4.920;2022-09-21T10:29:29;3.83;;;0.85;;
17369;SDS011;8802;52.402;4.920;2022-09-21T10:32:17;2.38;;;0.77;;
17369;SDS011;8802;52.402;4.920;2022-09-21T10:37:44;2.95;;;1.13;;
17369;SDS011;8802;52.402;4.920;2022-09-21T10:40:25;1.75;;;0.80;;
17369;SDS011;8802;52.402;4.920;2022-09-21T10:42:57;2.88;;;0.70;;
17369;SDS011;8802;52.402;4.920;2022-09-21T10:45:27;5.53;;;1.20;;
17369;SDS011;8802;52.402;4.920;2022-09-21T10:47:57;2.00;;;0.60;;
17369;SDS011;8802;52.402;4.920;2022-09-21T10:50:47;2.85;;;0.73;;
17369;SDS011;8802;52.402;4.920;2022-09-21T10:53:18;2.47;;;1.02;;
17369;SDS011;8802;52.402;4.920;2022-09-21T10:55:55;3.45;;;0.90;;
17369;SDS011;8802;52.402;4.920;2022-09-21T10:58:27;3.40;;;0.80;;
17369;SDS011;8802;52.402;4.920;2022-09-21T11:00:56;4.18;;;0.70;;
17369;SDS011;8802;52.402;4.920;2022-09-21T11:03:39;1.83;;;1.00;;
17369;SDS011;8802;52.402;4.920;2022-09-21T11:06:14;2.85;;;0.80;;
17369;SDS011;8802;52.402;4.920;2022-09-21T11:08:48;4.13;;;0.98;;
17369;SDS011;8802;52.402;4.920;2022-09-21T11:11:31;3.78;;;0.80;;
17369;SDS011;8802;52.402;4.920;2022-09-21T11:14:13;2.47;;;1.00;;
17369;SDS011;8802;52.402;4.920;2022-09-21T11:16:50;3.67;;;0.90;;
17369;SDS011;8802;52.402;4.920;2022-09-21T11:19:24;2.70;;;0.70;;
17369;SDS011;8802;52.402;4.920;2022-09-21T11:21:59;2.70;;;1.05;;
17369;SDS011;8802;52.402;4.920;2022-09-21T11:24:36;3.40;;;1.10;;
17369;SDS011;8802;52.402;4.920;2022-09-21T11:27:11;5.05;;;0.98;;
17369;SDS011;8802;52.402;4.920;2022-09-21T11:29:51;3.40;;;1.00;;
17369;SDS011;8802;52.402;4.920;2022-09-21T11:35:28;4.65;;;1.27;;
17369;SDS011;8802;52.402;4.920;2022-09-21T11:38:03;2.15;;;0.98;;
17369;SDS011;8802;52.402;4.920;2022-09-21T11:40:49;1.63;;;1.00;;
17369;SDS011;8802;52.402;4.920;2022-09-21T11:46:34;4.85;;;0.85;;
17369;SDS011;8802;52.402;4.920;2022-09-21T11:49:14;5.22;;;1.00;;
17369;SDS011;8802;52.402;4.920;2022-09-21T11:52:00;2.50;;;0.63;;
17369;SDS011;8802;52.402;4.920;2022-09-21T11:57:37;3.60;;;0.82;;
17369;SDS011;8802;52.402;4.920;2022-09-21T12:00:10;4.15;;;0.60;;
17369;SDS011;8802;52.402;4.920;2022-09-21T12:06:01;2.05;;;0.50;;
17369;SDS011;8802;52.402;4.920;2022-09-21T12:11:42;1.35;;;0.63;;
17369;SDS011;8802;52.402;4.920;2022-09-21T12:14:16;3.40;;;0.95;;
17369;SDS011;8802;52.402;4.920;2022-09-21T12:16:51;1.85;;;0.70;;
17369;SDS011;8802;52.402;4.920;2022-09-21T12:19:25;3.22;;;0.70;;
17369;SDS011;8802;52.402;4.920;2022-09-21T12:22:05;1.85;;;0.70;;
17369;SDS011;8802;52.402;4.920;2022-09-21T12:24:35;1.48;;;0.63;;
17369;SDS011;8802;52.402;4.920;2022-09-21T12:27:10;1.48;;;0.50;;
17369;SDS011;8802;52.402;4.920;2022-09-21T12:29:41;3.75;;;0.95;;
17369;SDS011;8802;52.402;4.920;2022-09-21T12:32:14;3.53;;;0.75;;
17369;SDS011;8802;52.402;4.920;2022-09-21T12:34:48;1.20;;;0.50;;
17369;SDS011;8802;52.402;4.920;2022-09-21T12:37:22;2.47;;;0.50;;
17369;SDS011;8802;52.402;4.920;2022-09-21T12:39:57;3.15;;;0.50;;
17369;SDS011;8802;52.402;4.920;2022-09-21T12:42:32;3.92;;;0.77;;
17369;SDS011;8802;52.402;4.920;2022-09-21T12:45:05;5.57;;;0.85;;
17369;SDS011;8802;52.402;4.920;2022-09-21T12:47:47;3.17;;;1.05;;
17369;SDS011;8802;52.402;4.920;2022-09-21T12:50:22;2.45;;;0.60;;
17369;SDS011;8802;52.402;4.920;2022-09-21T12:52:54;2.50;;;0.70;;
17369;SDS011;8802;52.402;4.920;2022-09-21T12:55:31;5.20;;;1.80;;
17369;SDS011;8802;52.402;4.920;2022-09-21T12:58:12;4.40;;;1.40;;
17369;SDS011;8802;52.402;4.920;2022-09-21T13:00:50;1.98;;;0.95;;
17369;SDS011;8802;52.402;4.920;2022-09-21T13:03:26;1.67;;;0.60;;
17369;SDS011;8802;52.402;4.920;2022-09-21T13:06:05;2.63;;;0.60;;
17369;SDS011;8802;52.402;4.920;2022-09-21T13:08:49;1.33;;;0.47;;
17369;SDS011;8802;52.402;4.920;2022-09-21T13:11:17;1.08;;;0.45;;
17369;SDS011;8802;52.402;4.920;2022-09-21T13:13:47;3.30;;;0.60;;
17369;SDS011;8802;52.402;4.920;2022-09-21T13:16:22;2.45;;;0.70;;
17369;SDS011;8802;52.402;4.920;2022-09-21T13:18:53;0.93;;;0.43;;
17369;SDS011;8802;52.402;4.920;2022-09-21T13:21:23;3.00;;;0.60;;
17369;SDS011;8802;52.402;4.920;2022-09-21T13:23:56;1.55;;;0.40;;
17369;SDS011;8802;52.402;4.920;2022-09-21T13:26:28;2.75;;;0.70;;
17369;SDS011;8802;52.402;4.920;2022-09-21T13:32:02;1.27;;;0.40;;
17369;SDS011;8802;52.402;4.920;2022-09-21T13:34:45;2.05;;;0.50;;
17369;SDS011;8802;52.402;4.920;2022-09-21T13:37:25;2.55;;;0.60;;
17369;SDS011;8802;52.402;4.920;2022-09-21T13:49:14;1.85;;;0.50;;
17369;SDS011;8802;52.402;4.920;2022-09-21T13:51:49;1.63;;;0.50;;
17369;SDS011;8802;52.402;4.920;2022-09-21T13:54:18;2.10;;;0.60;;
17369;SDS011;8802;52.402;4.920;2022-09-21T13:56:56;1.75;;;0.60;;
17369;SDS011;8802;52.402;4.920;2022-09-21T13:59:43;1.30;;;0.50;;
17369;SDS011;8802;52.402;4.920;2022-09-21T14:02:23;3.13;;;0.63;;
17369;SDS011;8802;52.402;4.920;2022-09-21T14:04:59;1.55;;;0.50;;
17369;SDS011;8802;52.402;4.920;2022-09-21T14:07:30;0.80;;;0.43;;
17369;SDS011;8802;52.402;4.920;2022-09-21T14:09:59;3.08;;;0.90;;
17369;SDS011;8802;52.402;4.920;2022-09-21T14:12:31;1.60;;;0.68;;
17369;SDS011;8802;52.402;4.920;2022-09-21T14:18:08;2.90;;;0.70;;
17369;SDS011;8802;52.402;4.920;2022-09-21T14:26:59;2.40;;;0.60;;
17369;SDS011;8802;52.402;4.920;2022-09-21T14:29:32;3.20;;;1.00;;
17369;SDS011;8802;52.402;4.920;2022-09-21T14:32:11;1.15;;;0.50;;
17369;SDS011;8802;52.402;4.920;2022-09-21T14:34:42;3.65;;;0.73;;
17369;SDS011;8802;52.402;4.920;2022-09-21T14:37:14;3.08;;;0.70;;
17369;SDS011;8802;52.402;4.920;2022-09-21T14:39:53;2.10;;;0.60;;
17369;SDS011;8802;52.402;4.920;2022-09-21T14:42:22;2.85;;;0.63;;
17369;SDS011;8802;52.402;4.920;2022-09-21T14:44:54;1.92;;;0.47;;
17369;SDS011;8802;52.402;4.920;2022-09-21T14:47:29;3.50;;;0.60;;
17369;SDS011;8802;52.402;4.920;2022-09-21T14:50:15;0.80;;;0.35;;
17369;SDS011;8802;52.402;4.920;2022-09-21T14:53:12;2.85;;;0.70;;
17369;SDS011;8802;52.402;4.920;2022-09-21T14:59:02;2.63;;;0.60;;
17369;SDS011;8802;52.402;4.920;2022-09-21T15:01:40;2.53;;;0.60;;
17369;SDS011;8802;52.402;4.920;2022-09-21T15:04:31;1.88;;;0.60;;
17369;SDS011;8802;52.402;4.920;2022-09-21T15:07:14;3.70;;;0.77;;
17369;SDS011;8802;52.402;4.920;2022-09-21T15:13:19;2.70;;;0.60;;
17369;SDS011;8802;52.402;4.920;2022-09-21T15:16:09;2.17;;;0.65;;
17369;SDS011;8802;52.402;4.920;2022-09-21T15:18:46;3.40;;;0.57;;
17369;SDS011;8802;52.402;4.920;2022-09-21T15:21:19;2.58;;;0.65;;
17369;SDS011;8802;52.402;4.920;2022-09-21T15:23:48;1.75;;;0.50;;
17369;SDS011;8802;52.402;4.920;2022-09-21T15:26:17;1.85;;;0.75;;
17369;SDS011;8802;52.402;4.920;2022-09-21T15:28:48;5.57;;;0.68;;
17369;SDS011;8802;52.402;4.920;2022-09-21T15:31:18;3.47;;;0.50;;
17369;SDS011;8802;52.402;4.920;2022-09-21T15:33:46;1.60;;;0.45;;
17369;SDS011;8802;52.402;4.920;2022-09-21T15:36:20;3.33;;;0.47;;
17369;SDS011;8802;52.402;4.920;2022-09-21T15:38:48;2.50;;;0.98;;
17369;SDS011;8802;52.402;4.920;2022-09-21T15:41:36;2.10;;;0.60;;
17369;SDS011;8802;52.402;4.920;2022-09-21T15:44:06;2.17;;;0.70;;
17369;SDS011;8802;52.402;4.920;2022-09-21T15:46:39;1.85;;;0.80;;
17369;SDS011;8802;52.402;4.920;2022-09-21T15:49:09;1.38;;;0.40;;
17369;SDS011;8802;52.402;4.920;2022-09-21T15:51:41;0.88;;;0.40;;
17369;SDS011;8802;52.402;4.920;2022-09-21T15:54:16;3.47;;;0.60;;
17369;SDS011;8802;52.402;4.920;2022-09-21T15:56:51;1.92;;;0.50;;
17369;SDS011;8802;52.402;4.920;2022-09-21T15:59:19;1.70;;;0.50;;
17369;SDS011;8802;52.402;4.920;2022-09-21T16:01:47;1.77;;;0.50;;
17369;SDS011;8802;52.402;4.920;2022-09-21T16:04:17;3.13;;;0.43;;
17369;SDS011;8802;52.402;4.920;2022-09-21T16:06:56;3.55;;;0.55;;
17369;SDS011;8802;52.402;4.920;2022-09-21T16:09:27;3.35;;;0.65;;
17369;SDS011;8802;52.402;4.920;2022-09-21T16:12:27;2.13;;;0.63;;
17369;SDS011;8802;52.402;4.920;2022-09-21T16:15:04;2.88;;;0.50;;
17369;SDS011;8802;52.402;4.920;2022-09-21T16:17:57;2.55;;;0.50;;
17369;SDS011;8802;52.402;4.920;2022-09-21T16:20:37;1.98;;;0.55;;
17369;SDS011;8802;52.402;4.920;2022-09-21T16:23:10;1.63;;;0.50;;
17369;SDS011;8802;52.402;4.920;2022-09-21T16:25:39;1.33;;;0.40;;
17369;SDS011;8802;52.402;4.920;2022-09-21T16:28:25;2.58;;;0.70;;
17369;SDS011;8802;52.402;4.920;2022-09-21T16:30:54;1.92;;;0.43;;
17369;SDS011;8802;52.402;4.920;2022-09-21T16:33:33;1.73;;;0.50;;
17369;SDS011;8802;52.402;4.920;2022-09-21T16:36:02;1.75;;;0.82;;
17369;SDS011;8802;52.402;4.920;2022-09-21T16:38:31;2.67;;;1.20;;
17369;SDS011;8802;52.402;4.920;2022-09-21T16:40:58;2.20;;;0.75;;
17369;SDS011;8802;52.402;4.920;2022-09-21T16:43:27;4.30;;;0.70;;
17369;SDS011;8802;52.402;4.920;2022-09-21T16:45:54;2.60;;;0.40;;
17369;SDS011;8802;52.402;4.920;2022-09-21T16:48:20;2.30;;;0.93;;
17369;SDS011;8802;52.402;4.920;2022-09-21T16:50:47;1.75;;;0.38;;
17369;SDS011;8802;52.402;4.920;2022-09-21T16:53:16;1.30;;;0.30;;
17369;SDS011;8802;52.402;4.920;2022-09-21T16:55:44;1.23;;;0.30;;
17369;SDS011;8802;52.402;4.920;2022-09-21T16:58:12;2.35;;;0.47;;
17369;SDS011;8802;52.402;4.920;2022-09-21T17:00:39;2.47;;;0.70;;
17369;SDS011;8802;52.402;4.920;2022-09-21T17:03:07;2.38;;;0.50;;
17369;SDS011;8802;52.402;4.920;2022-09-21T17:05:35;1.48;;;0.65;;
17369;SDS011;8802;52.402;4.920;2022-09-21T17:08:02;1.92;;;0.60;;
17369;SDS011;8802;52.402;4.920;2022-09-21T17:10:29;2.85;;;0.68;;
17369;SDS011;8802;52.402;4.920;2022-09-21T17:13:00;1.23;;;0.50;;
17369;SDS011;8802;52.402;4.920;2022-09-21T17:15:32;1.67;;;0.50;;
17369;SDS011;8802;52.402;4.920;2022-09-21T17:18:00;2.67;;;0.55;;
17369;SDS011;8802;52.402;4.920;2022-09-21T17:20:29;2.50;;;0.40;;
17369;SDS011;8802;52.402;4.920;2022-09-21T17:22:58;1.90;;;0.63;;
17369;SDS011;8802;52.402;4.920;2022-09-21T17:25:27;2.38;;;0.65;;
17369;SDS011;8802;52.402;4.920;2022-09-21T17:27:53;1.92;;;0.65;;
17369;SDS011;8802;52.402;4.920;2022-09-21T17:30:23;0.85;;;0.50;;
17369;SDS011;8802;52.402;4.920;2022-09-21T17:32:51;1.33;;;0.70;;
17369;SDS011;8802;52.402;4.920;2022-09-21T17:35:21;2.38;;;0.80;;
17369;SDS011;8802;52.402;4.920;2022-09-21T17:37:54;1.63;;;0.47;;
17369;SDS011;8802;52.402;4.920;2022-09-21T17:40:21;1.13;;;0.50;;
17369;SDS011;8802;52.402;4.920;2022-09-21T17:42:49;2.55;;;1.10;;
17369;SDS011;8802;52.402;4.920;2022-09-21T17:45:19;3.58;;;0.80;;
17369;SDS011;8802;52.402;4.920;2022-09-21T17:47:53;2.03;;;0.70;;
17369;SDS011;8802;52.402;4.920;2022-09-21T17:50:21;2.53;;;1.05;;
17369;SDS011;8802;52.402;4.920;2022-09-21T17:52:50;1.45;;;0.80;;
17369;SDS011;8802;52.402;4.920;2022-09-21T17:55:35;3.63;;;0.65;;
17369;SDS011;8802;52.402;4.920;2022-09-21T17:58:09;2.17;;;0.60;;
17369;SDS011;8802;52.402;4.920;2022-09-21T18:00:46;2.85;;;0.90;;
17369;SDS011;8802;52.402;4.920;2022-09-21T18:03:21;3.97;;;0.90;;
17369;SDS011;8802;52.402;4.920;2022-09-21T18:05:50;1.70;;;0.60;;
17369;SDS011;8802;52.402;4.920;2022-09-21T18:08:18;2.08;;;0.90;;
17369;SDS011;8802;52.402;4.920;2022-09-21T18:10:47;2.50;;;0.80;;
17369;SDS011;8802;52.402;4.920;2022-09-21T18:13:23;3.33;;;1.10;;
17369;SDS011;8802;52.402;4.920;2022-09-21T18:16:04;2.67;;;0.70;;
17369;SDS011;8802;52.402;4.920;2022-09-21T18:18:43;2.88;;;1.00;;
17369;SDS011;8802;52.402;4.920;2022-09-21T18:21:17;2.72;;;1.20;;
17369;SDS011;8802;52.402;4.920;2022-09-21T18:23:48;3.25;;;0.93;;
17369;SDS011;8802;52.402;4.920;2022-09-21T18:26:34;3.80;;;0.98;;
17369;SDS011;8802;52.402;4.920;2022-09-21T18:29:03;3.45;;;1.20;;
17369;SDS011;8802;52.402;4.920;2022-09-21T18:31:36;3.42;;;1.10;;
17369;SDS011;8802;52.402;4.920;2022-09-21T18:37:11;2.00;;;1.10;;
17369;SDS011;8802;52.402;4.920;2022-09-21T18:39:51;2.35;;;1.13;;
17369;SDS011;8802;52.402;4.920;2022-09-21T18:42:28;2.78;;;1.40;;
17369;SDS011;8802;52.402;4.920;2022-09-21T18:45:04;4.07;;;1.67;;
17369;SDS011;8802;52.402;4.920;2022-09-21T18:47:37;5.28;;;1.48;;
17369;SDS011;8802;52.402;4.920;2022-09-21T18:50:23;2.00;;;1.33;;
17369;SDS011;8802;52.402;4.920;2022-09-21T18:52:56;2.75;;;1.23;;
17369;SDS011;8802;52.402;4.920;2022-09-21T18:55:29;2.58;;;1.80;;
17369;SDS011;8802;52.402;4.920;2022-09-21T18:57:57;5.75;;;3.70;;
17369;SDS011;8802;52.402;4.920;2022-09-21T19:00:26;5.18;;;3.63;;
17369;SDS011;8802;52.402;4.920;2022-09-21T19:02:56;4.20;;;3.28;;
17369;SDS011;8802;52.402;4.920;2022-09-21T19:05:25;6.00;;;3.30;;
17369;SDS011;8802;52.402;4.920;2022-09-21T19:07:53;3.45;;;2.45;;
17369;SDS011;8802;52.402;4.920;2022-09-21T19:10:26;3.15;;;2.33;;
17369;SDS011;8802;52.402;4.920;2022-09-21T19:13:04;4.70;;;2.35;;
17369;SDS011;8802;52.402;4.920;2022-09-21T19:15:42;4.75;;;2.80;;
17369;SDS011;8802;52.402;4.920;2022-09-21T19:18:15;3.35;;;2.28;;
17369;SDS011;8802;52.402;4.920;2022-09-21T19:20:53;3.90;;;2.05;;
17369;SDS011;8802;52.402;4.920;2022-09-21T19:23:34;4.05;;;2.60;;
17369;SDS011;8802;52.402;4.920;2022-09-21T19:26:10;2.70;;;1.98;;
17369;SDS011;8802;52.402;4.920;2022-09-21T19:28:46;3.72;;;2.35;;
17369;SDS011;8802;52.402;4.920;2022-09-21T19:31:29;2.88;;;2.22;;
17369;SDS011;8802;52.402;4.920;2022-09-21T19:33:57;3.78;;;2.10;;
17369;SDS011;8802;52.402;4.920;2022-09-21T19:36:25;3.05;;;2.13;;
17369;SDS011;8802;52.402;4.920;2022-09-21T19:38:54;4.07;;;2.10;;
17369;SDS011;8802;52.402;4.920;2022-09-21T19:41:30;3.00;;;1.92;;
17369;SDS011;8802;52.402;4.920;2022-09-21T19:44:05;3.28;;;2.00;;
17369;SDS011;8802;52.402;4.920;2022-09-21T19:46:42;2.80;;;2.17;;
17369;SDS011;8802;52.402;4.920;2022-09-21T19:49:16;3.53;;;1.92;;
17369;SDS011;8802;52.402;4.920;2022-09-21T19:51:46;7.05;;;3.33;;
17369;SDS011;8802;52.402;4.920;2022-09-21T19:54:15;3.80;;;2.55;;
17369;SDS011;8802;52.402;4.920;2022-09-21T19:57:01;3.20;;;2.60;;
17369;SDS011;8802;52.402;4.920;2022-09-21T19:59:54;3.70;;;2.40;;
17369;SDS011;8802;52.402;4.920;2022-09-21T20:02:23;3.75;;;2.28;;
17369;SDS011;8802;52.402;4.920;2022-09-21T20:04:56;2.20;;;2.00;;
17369;SDS011;8802;52.402;4.920;2022-09-21T20:07:36;3.40;;;2.20;;
17369;SDS011;8802;52.402;4.920;2022-09-21T20:10:21;3.42;;;2.67;;
17369;SDS011;8802;52.402;4.920;2022-09-21T20:13:00;3.30;;;2.20;;
17369;SDS011;8802;52.402;4.920;2022-09-21T20:15:40;3.67;;;2.25;;
17369;SDS011;8802;52.402;4.920;2022-09-21T20:18:13;5.82;;;2.40;;
17369;SDS011;8802;52.402;4.920;2022-09-21T20:20:47;3.97;;;2.53;;
17369;SDS011;8802;52.402;4.920;2022-09-21T20:23:15;3.08;;;2.15;;
17369;SDS011;8802;52.402;4.920;2022-09-21T20:25:46;2.97;;;2.50;;
17369;SDS011;8802;52.402;4.920;2022-09-21T20:28:17;3.40;;;2.15;;
17369;SDS011;8802;52.402;4.920;2022-09-21T20:30:45;4.88;;;2.50;;
17369;SDS011;8802;52.402;4.920;2022-09-21T20:33:14;4.80;;;2.55;;
17369;SDS011;8802;52.402;4.920;2022-09-21T20:35:46;4.35;;;2.72;;
17369;SDS011;8802;52.402;4.920;2022-09-21T20:38:15;4.70;;;2.42;;
17369;SDS011;8802;52.402;4.920;2022-09-21T20:40:42;5.57;;;2.90;;
17369;SDS011;8802;52.402;4.920;2022-09-21T20:43:10;4.05;;;2.40;;
17369;SDS011;8802;52.402;4.920;2022-09-21T20:45:39;4.00;;;2.80;;
17369;SDS011;8802;52.402;4.920;2022-09-21T20:48:14;6.05;;;3.00;;
17369;SDS011;8802;52.402;4.920;2022-09-21T20:50:42;3.38;;;2.25;;
17369;SDS011;8802;52.402;4.920;2022-09-21T20:53:12;6.18;;;3.30;;
17369;SDS011;8802;52.402;4.920;2022-09-21T20:55:41;4.57;;;2.53;;
17369;SDS011;8802;52.402;4.920;2022-09-21T20:58:17;3.55;;;2.95;;
17369;SDS011;8802;52.402;4.920;2022-09-21T21:00:43;3.15;;;2.60;;
17369;SDS011;8802;52.402;4.920;2022-09-21T21:03:10;3.22;;;2.83;;
17369;SDS011;8802;52.402;4.920;2022-09-21T21:05:38;3.35;;;2.80;;
17369;SDS011;8802;52.402;4.920;2022-09-21T21:08:05;5.55;;;2.75;;
17369;SDS011;8802;52.402;4.920;2022-09-21T21:10:32;4.13;;;3.08;;
17369;SDS011;8802;52.402;4.920;2022-09-21T21:13:01;4.13;;;3.13;;
17369;SDS011;8802;52.402;4.920;2022-09-21T21:15:28;5.15;;;3.05;;
17369;SDS011;8802;52.402;4.920;2022-09-21T21:17:56;4.95;;;3.15;;
17369;SDS011;8802;52.402;4.920;2022-09-21T21:20:23;4.57;;;3.38;;
17369;SDS011;8802;52.402;4.920;2022-09-21T21:22:50;4.18;;;3.00;;
17369;SDS011;8802;52.402;4.920;2022-09-21T21:25:17;4.95;;;3.28;;
17369;SDS011;8802;52.402;4.920;2022-09-21T21:27:44;4.78;;;3.30;;
17369;SDS011;8802;52.402;4.920;2022-09-21T21:30:13;7.35;;;3.60;;
17369;SDS011;8802;52.402;4.920;2022-09-21T21:32:40;5.22;;;3.50;;
17369;SDS011;8802;52.402;4.920;2022-09-21T21:35:07;4.97;;;3.55;;
17369;SDS011;8802;52.402;4.920;2022-09-21T21:37:34;3.92;;;3.33;;
17369;SDS011;8802;52.402;4.920;2022-09-21T21:40:01;3.58;;;2.88;;
17369;SDS011;8802;52.402;4.920;2022-09-21T21:42:28;6.30;;;3.22;;
17369;SDS011;8802;52.402;4.920;2022-09-21T21:44:56;4.63;;;3.53;;
17369;SDS011;8802;52.402;4.920;2022-09-21T21:47:24;4.50;;;3.30;;
17369;SDS011;8802;52.402;4.920;2022-09-21T21:49:51;3.72;;;3.00;;
17369;SDS011;8802;52.402;4.920;2022-09-21T21:52:18;3.88;;;2.65;;
17369;SDS011;8802;52.402;4.920;2022-09-21T21:54:45;3.97;;;3.13;;
17369;SDS011;8802;52.402;4.920;2022-09-21T21:57:11;5.53;;;3.40;;
17369;SDS011;8802;52.402;4.920;2022-09-21T21:59:39;5.07;;;2.80;;
17369;SDS011;8802;52.402;4.920;2022-09-21T22:02:06;3.30;;;2.60;;
17369;SDS011;8802;52.402;4.920;2022-09-21T22:04:35;5.53;;;3.20;;
17369;SDS011;8802;52.402;4.920;2022-09-21T22:07:02;3.35;;;3.05;;
17369;SDS011;8802;52.402;4.920;2022-09-21T22:09:29;6.05;;;3.20;;
17369;SDS011;8802;52.402;4.920;2022-09-21T22:11:56;4.40;;;2.92;;
17369;SDS011;8802;52.402;4.920;2022-09-21T22:14:25;4.38;;;3.30;;
17369;SDS011;8802;52.402;4.920;2022-09-21T22:16:52;4.78;;;2.92;;
17369;SDS011;8802;52.402;4.920;2022-09-21T22:19:19;5.95;;;2.97;;
17369;SDS011;8802;52.402;4.920;2022-09-21T22:21:47;3.78;;;2.88;;
17369;SDS011;8802;52.402;4.920;2022-09-21T22:24:15;3.05;;;2.60;;
17369;SDS011;8802;52.402;4.920;2022-09-21T22:26:42;4.70;;;2.95;;
17369;SDS011;8802;52.402;4.920;2022-09-21T22:29:12;4.55;;;3.05;;
17369;SDS011;8802;52.402;4.920;2022-09-21T22:31:41;3.85;;;2.30;;
17369;SDS011;8802;52.402;4.920;2022-09-21T22:34:09;3.47;;;2.60;;
17369;SDS011;8802;52.402;4.920;2022-09-21T22:36:37;4.07;;;2.78;;
17369;SDS011;8802;52.402;4.920;2022-09-21T22:39:06;3.38;;;2.60;;
17369;SDS011;8802;52.402;4.920;2022-09-21T22:41:34;5.30;;;2.78;;
17369;SDS011;8802;52.402;4.920;2022-09-21T22:44:02;4.00;;;3.00;;
17369;SDS011;8802;52.402;4.920;2022-09-21T22:46:30;4.80;;;3.03;;
17369;SDS011;8802;52.402;4.920;2022-09-21T22:48:57;2.97;;;2.63;;
17369;SDS011;8802;52.402;4.920;2022-09-21T22:51:24;5.03;;;2.83;;
17369;SDS011;8802;52.402;4.920;2022-09-21T22:53:52;4.38;;;2.75;;
17369;SDS011;8802;52.402;4.920;2022-09-21T22:56:21;3.80;;;3.25;;
17369;SDS011;8802;52.402;4.920;2022-09-21T22:58:51;3.85;;;2.67;;
17369;SDS011;8802;52.402;4.920;2022-09-21T23:01:20;4.50;;;2.80;;
17369;SDS011;8802;52.402;4.920;2022-09-21T23:03:50;3.00;;;2.70;;
17369;SDS011;8802;52.402;4.920;2022-09-21T23:06:19;3.75;;;3.10;;
17369;SDS011;8802;52.402;4.920;2022-09-21T23:08:47;3.97;;;2.92;;
17369;SDS011;8802;52.402;4.920;2022-09-21T23:11:15;4.68;;;3.28;;
17369;SDS011;8802;52.402;4.920;2022-09-21T23:13:47;3.72;;;2.80;;
17369;SDS011;8802;52.402;4.920;2022-09-21T23:16:15;4.50;;;2.90;;
17369;SDS011;8802;52.402;4.920;2022-09-21T23:18:42;3.22;;;2.92;;
17369;SDS011;8802;52.402;4.920;2022-09-21T23:21:11;3.55;;;2.67;;
17369;SDS011;8802;52.402;4.920;2022-09-21T23:23:39;6.72;;;3.50;;
17369;SDS011;8802;52.402;4.920;2022-09-21T23:26:06;5.30;;;2.83;;
17369;SDS011;8802;52.402;4.920;2022-09-21T23:28:36;4.85;;;3.58;;
17369;SDS011;8802;52.402;4.920;2022-09-21T23:31:05;4.32;;;2.85;;
17369;SDS011;8802;52.402;4.920;2022-09-21T23:33:35;4.50;;;3.05;;
17369;SDS011;8802;52.402;4.920;2022-09-21T23:36:03;5.28;;;3.72;;
17369;SDS011;8802;52.402;4.920;2022-09-21T23:38:31;5.35;;;3.53;;
17369;SDS011;8802;52.402;4.920;2022-09-21T23:40:59;5.95;;;3.80;;
17369;SDS011;8802;52.402;4.920;2022-09-21T23:43:28;4.43;;;3.22;;
17369;SDS011;8802;52.402;4.920;2022-09-21T23:45:54;4.18;;;3.20;;
17369;SDS011;8802;52.402;4.920;2022-09-21T23:48:23;4.88;;;3.50;;
17369;SDS011;8802;52.402;4.920;2022-09-21T23:50:50;5.93;;;3.33;;
17369;SDS011;8802;52.402;4.920;2022-09-21T23:53:18;7.45;;;3.33;;
17369;SDS011;8802;52.402;4.920;2022-09-21T23:55:45;5.13;;;3.70;;
17369;SDS011;8802;52.402;4.920;2022-09-21T23:58:12;7.13;;;3.65;;
